Flight Track Log - Related Links

Times and Time Zones

All times are in EDT time to prevent confusion due to time zone crossing. See the UAL4476 flight status page for this flight to view local times or setup timezone preferences in your user account.


Time Position Orientation Groundspeed Altitude Reporting Facility
EDT Latitude Longitude Course Direction KTS MPH feet Rate Location/Type
Thu 08:56:06 AM 41.4194 -81.8403 27° Northeast 164 189 1,900  Level Cleveland Center
Thu 08:57:13 AM 41.4825 -81.7972 27° Northeast 259 298 3,700 1,838 Climbing Cleveland Center
Thu 08:57:57 AM 41.5244 -81.7592 34° Northeast 265 305 5,300 2,308 Climbing Cleveland Center
Thu 08:58:57 AM 41.5878 -81.6936 38° Northeast 270 311 7,700 2,400 Climbing Cleveland Center
Thu 08:59:57 AM 41.6508 -81.6253 39° Northeast 280 322 10,100 1,750 Climbing Cleveland Center
Thu 09:00:57 AM 41.7139 -81.5567 39° Northeast 303 349 11,200 1,700 Climbing Cleveland Center
Thu 09:01:57 AM 41.7628 -81.4544 57° Northeast 316 364 13,500 1,650 Climbing Cleveland Center
Thu 09:02:57 AM 41.7886 -81.3183 76° East 345 397 14,500 900 Climbing Cleveland Center
Thu 09:03:57 AM 41.8147 -81.1683 77° East 393 452 15,300 950 Climbing Cleveland Center
Thu 09:04:57 AM 41.8425 -81.0125 76° East 423 487 16,400 1,450 Climbing Cleveland Center
Thu 09:05:57 AM 41.8700 -80.8425 78° East 428 493 18,200 1,900 Climbing Cleveland Center
Thu 09:06:57 AM 41.8933 -80.6919 78° East 421 484 20,200 1,600 Climbing Cleveland Center
Thu 09:07:57 AM 41.9203 -80.5356 77° East 416 479 21,400 1,200 Climbing Cleveland Center
Thu 09:08:57 AM 41.9453 -80.3767 78° East 426 490 22,600 1,150 Climbing Cleveland Center
Thu 09:09:57 AM 41.9719 -80.2144 77° East 434 499 23,700 1,200 Climbing Cleveland Center
Thu 09:10:57 AM 41.9983 -80.0494 78° East 439 505 25,000 1,300 Climbing Cleveland Center
Thu 09:11:57 AM 42.0225 -79.9039 77° East 439 505 26,300 1,350 Climbing Cleveland Center
Thu 09:12:57 AM 42.0486 -79.7444 78° East 439 505 27,700 1,400 Climbing Cleveland Center
Thu 09:13:57 AM 42.0472 -79.5822 91° East 433 498 29,100 1,400 Climbing Cleveland Center
Thu 09:14:57 AM 42.0356 -79.4231 96° East 423 487 30,500 1,400 Climbing Cleveland Center
Thu 09:15:57 AM 42.0233 -79.2667 96° East 423 487 31,900 1,300 Climbing Cleveland Center
Thu 09:16:57 AM 42.0339 -79.1072 85° East 423 487 33,100 1,200 Climbing Cleveland Center
Thu 09:17:57 AM 42.0672 -78.9525 74° East 423 487 34,300 950 Climbing Cleveland Center
Thu 09:18:57 AM 42.0983 -78.7950 75° East 429 494 35,000 350 Climbing Cleveland Center
Thu 09:19:57 AM 42.1331 -78.6289 74° East 441 507 35,000  Level Cleveland Center
Thu 09:20:57 AM 42.1675 -78.4542 75° East 458 527 35,000  Level Cleveland Center
Thu 09:21:57 AM 42.2075 -78.2564 75° East 478 550 35,000  Level Cleveland Center
Thu 09:22:57 AM 42.2411 -78.0758 76° East 488 562 35,000  Level Cleveland Center
Thu 09:23:57 AM 42.2786 -77.8919 75° East 498 573 35,000  Level Cleveland Center
Thu 09:24:57 AM 42.3100 -77.7136 77° East 498 573 35,000  Level Cleveland Center
Thu 09:25:57 AM 42.3450 -77.5350 75° East 498 573 35,000  Level Cleveland Center
Thu 09:27:59 AM 42.4122 -77.1708 76° East 496 571 35,000  Level Boston Center
Thu 09:28:59 AM 42.4425 -76.9931 77° East 496 571 35,000  Level Boston Center
Thu 09:30:00 AM 42.4642 -76.8117 81° East 496 571 35,000  Level Boston Center
Thu 09:31:00 AM 42.4836 -76.6269 82° East 491 565 35,000  Level Boston Center
Thu 09:31:58 AM 42.5028 -76.4425 82° East 491 565 35,000  Level Boston Center
Thu 09:32:59 AM 42.5156 -76.2572 85° East 496 571 35,000  Level Boston Center
Thu 09:33:58 AM 42.5197 -76.0686 88° East 496 571 35,000  Level Boston Center
Thu 09:34:58 AM 42.5253 -75.8831 88° East 496 571 35,000  Level Boston Center
Thu 09:35:59 AM 42.5269 -75.6914 89° East 501 577 35,000  Level Boston Center
Thu 09:36:59 AM 42.5319 -75.5058 88° East 495 570 35,000  Level Boston Center
Thu 09:38:00 AM 42.5347 -75.3200 89° East 495 570 35,000  Level Boston Center
Thu 09:38:58 AM 42.5372 -75.1311 89° East 495 570 35,000  Level Boston Center
Thu 09:39:58 AM 42.5394 -74.9453 89° East 495 570 35,000  Level Boston Center
Thu 09:40:58 AM 42.5433 -74.7594 88° East 495 570 35,000  Level Boston Center
Thu 09:41:59 AM 42.5431 -74.5733 90° East 495 570 35,000  Level Boston Center
Thu 09:43:00 AM 42.5506 -74.3875 87° East 489 563 35,000  Level Boston Center
Thu 09:44:00 AM 42.5494 -74.1986 90° East 497 572 35,000  Level Boston Center
Thu 09:45:00 AM 42.5497 -74.0353 90° East 497 572 35,000  Level Boston Center
Thu 09:45:58 AM 42.5522 -73.8464 89° East 497 572 35,000  Level Boston Center
Thu 09:46:58 AM 42.5522 -73.6575 90° East 497 572 35,000  Level Boston Center
Thu 09:47:59 AM 42.5542 -73.4661 89° East 497 572 35,000 -50 Level Boston Center
Thu 09:48:59 AM 42.5556 -73.2856 89° East 510 587 34,900 -1,261 Descending Boston Center
Thu 09:49:58 AM 42.5531 -73.0544 91° East 516 594 32,500 -2,622 Descending Boston Center
Thu 09:50:58 AM 42.5517 -72.8544 90° East 521 600 29,700 -2,826 Descending Boston Center
Thu 09:51:59 AM 42.5503 -72.6656 91° East 516 594 26,800 -2,902 Descending Boston Center
Thu 09:53:00 AM 42.5483 -72.4794 91° East 504 580 23,800 -2,975 Descending Boston Center
Thu 09:54:00 AM 42.5483 -72.2936 90° East 492 566 20,800 -2,975 Descending Boston Center
Thu 09:54:59 AM 42.5439 -72.1217 92° East 472 543 17,900 -2,773 Descending Boston Center
Thu 09:55:59 AM 42.5347 -71.9497 94° East 461 531 15,300 -2,331 Descending Boston Center
Thu 09:57:00 AM 42.5194 -71.7808 97° East 461 531 13,200 -2,132 Descending Boston Center
Thu 09:58:00 AM 42.5058 -71.6206 97° East 443 510 11,000 -1,769 Descending Boston Center
Thu 09:58:18 AM 42.5000 -71.5667 98° East 416 479 10,900 -857 Descending KA90
Thu 09:59:17 AM 42.4833 -71.4167 99° East 406 467 9,900 -908 Descending KA90
Thu 10:00:17 AM 42.4667 -71.2833 100° East 340 391 9,100 -1,143 Descending KA90
Thu 10:01:23 AM 42.4667 -71.1500 90° East 328 377 7,500 -1,000 Descending KA90
Thu 10:02:23 AM 42.4500 -71.0500 103° East 276 318 7,000 -263 Descending KA90
Thu 10:03:17 AM 42.4000 -70.9833 135° Southeast 260 299 7,000  Level KA90
Thu 10:04:17 AM 42.3333 -70.9500 160° South 265 305 7,000 -524 Level KA90
Thu 10:05:23 AM 42.2667 -70.9500 180° South 214 246 5,900 -1,200 Descending KA90
Thu 10:06:17 AM 42.2167 -70.9833 206° Southwest 219 252 4,600 -1,263 Descending KA90
Thu 10:07:17 AM 42.1500 -71.0000 191° South 219 252 3,500 -800 Descending KA90
Thu 10:08:17 AM 42.1500 -71.0667 270° West 180 207 3,000 -238 Descending KA90
Thu 10:09:23 AM 42.2000 -71.0833 346° North 167 192 3,000 -227 Level KA90
Thu 10:10:29 AM 42.2500 -71.0667 14° North 163 188 2,500 -619 Descending KA90
Thu 10:11:29 AM 42.2833 -71.0500 20° North 132 152 1,700 -750 Descending KA90
Thu 10:12:29 AM 42.3167 -71.0333 20° North 121 139 1,000 -650 Descending KA90
Thu 10:13:29 AM 42.3500 -71.0167 20° North 122 140 400 -600 Descending KA90

Login

Don't have an account? Register now (free) for customized features, flight alerts, and more!